Aeroporto :
LOGIN :

Iscrizione | Disclaimer

   EN    FR    IT 

 










Sommario :    VFR   VFR Marginale   IFR   IFR Intensivo   IFR Molto Intensivo
Visibilità : 
Base nubi : 
>= 8 km
>= 3000ft
5 / 8 km
1000 / 3000 ft
1500m / 5 km
500 / 1000 ft
800 / 1500m
200 / 500 ft
< 800m
< 200 ft
Simboli :   Temporali  Nebbia  Neve Forte  Precipitazioni Forti  Vento > 20 kt
SIGMETs :   Varie  Temporali  Ghiacco  Turbolenza  Onda orograficha  Ceneri Vulcaniche






- Altitudine del aeroporto : 1302 ft
- Codice IATA : GNB


LFLS - Grenoble / St. Geoirs

ULTIMO METAR :
  • 170430Z AUTO 27010KT CAVOK 10/07 Q1022 NOSIG

METARs OBSOLETI :
  • 170400Z AUTO 27009KT 230V300 CAVOK 09/07 Q1022 NOSIG
  • 170330Z AUTO 25012KT CAVOK 10/07 Q1022 NOSIG
  • 170300Z AUTO 26014KT CAVOK 10/07 Q1022 NOSIG
  • 170230Z AUTO 23011KT 200V260 CAVOK 11/06 Q1023 NOSIG
  • 170200Z AUTO 21007KT 160V260 9999 FEW030 BKN180 OVC200 11/06 Q1023

TAF TAF LFLS
Valido dal 17 a 03 ore il 18 a 03 ore UTC


170200Z 1703/1803 26010KT 9999 FEW030 OVC180
BECMG 1712/1714 RA SCT010 OVC030
TEMPO 1716/1720 VRB05KT 4000 RA OVC010
BECMG 1720/1722 NSW BKN025
PROB40
TEMPO 1720/1722 OVC007
BECMG 1801/1803 06005KT
ATIS : +33 4 76 65 55 89



MetMap, La meteo Aeronautica in un colpo d'occhio ! - Copyright ORBIFLY Dicembre 2007 - Disclaimer

ORBIFLY MET'MAP TEAM :

Programmazione e sviluppo : Alexandra Zaïnal
Concezione : Baudouin d'Aumeries
Aiuto per la programmazione : Marc-Olivier Méhu
Supporto tecnico e logistico : Manuel Goepfert
Aiuto per la traduzione : Arnaldo La Scala

Contatto : metmap@orbifly.com




FONTI E CREDITI :

   NOAA